createdAt,value
2019-02-01T00:00:11.703Z,97.43
2019-02-01T00:01:11.705Z,97.43
2019-02-01T00:02:11.706Z,97.43
2019-02-01T00:03:11.711Z,97.52
2019-02-01T00:04:11.707Z,97.80
2019-02-01T00:05:11.713Z,97.52
2019-02-01T00:06:11.713Z,97.24
2019-02-01T00:07:11.717Z,97.33
2019-02-01T00:08:11.719Z,97.43
2019-02-01T00:09:11.724Z,97.14
2019-02-01T00:10:11.722Z,97.80
2019-02-01T00:11:11.729Z,97.71
2019-02-01T00:12:11.732Z,97.71
2019-02-01T00:13:11.739Z,97.71
2019-02-01T00:14:11.734Z,97.33
2019-02-01T00:15:11.738Z,97.05
2019-02-01T00:16:11.737Z,97.33
2019-02-01T00:17:11.741Z,97.33
2019-02-01T00:18:11.742Z,97.43
2019-02-01T00:19:11.745Z,97.52
2019-02-01T00:20:11.756Z,96.77
2019-02-01T00:21:11.825Z,96.30
2019-02-01T00:22:11.764Z,95.64
2019-02-01T00:23:11.757Z,94.60
2019-02-01T00:24:11.753Z,93.94
2019-02-01T00:25:11.764Z,94.22
2019-02-01T00:26:11.758Z,94.13
2019-02-01T00:27:11.762Z,95.26
2019-02-01T00:28:11.762Z,94.79
2019-02-01T00:29:11.765Z,94.79
2019-02-01T00:30:11.769Z,95.07
2019-02-01T00:31:11.769Z,94.13
2019-02-01T00:32:11.770Z,94.03
2019-02-01T00:33:11.774Z,94.22
2019-02-01T00:34:11.778Z,94.13
2019-02-01T00:35:11.778Z,94.88
2019-02-01T00:36:11.778Z,94.22
2019-02-01T00:37:11.784Z,95.07
2019-02-01T00:38:11.787Z,94.88
2019-02-01T00:39:11.787Z,94.69
2019-02-01T00:40:11.789Z,94.79
2019-02-01T00:41:11.792Z,94.60
2019-02-01T00:42:11.794Z,95.07
2019-02-01T00:43:11.800Z,94.88
2019-02-01T00:44:11.798Z,94.79
2019-02-01T00:45:11.800Z,94.69
2019-02-01T00:46:11.804Z,94.79
2019-02-01T00:47:11.805Z,94.88
2019-02-01T00:48:12.514Z,94.22
2019-02-01T00:49:11.884Z,94.13
2019-02-01T00:50:11.814Z,94.22
2019-02-01T00:51:11.816Z,94.13
2019-02-01T00:52:11.824Z,93.47
2019-02-01T00:53:11.824Z,92.99
2019-02-01T00:54:11.823Z,93.28
2019-02-01T00:55:11.828Z,93.28
2019-02-01T00:56:11.825Z,94.03
2019-02-01T00:57:11.829Z,94.41
2019-02-01T00:58:11.847Z,94.32
2019-02-01T00:59:11.835Z,94.03
2019-02-01T01:00:11.835Z,94.03
2019-02-01T01:01:11.875Z,93.75
2019-02-01T01:02:11.842Z,93.37
2019-02-01T01:03:11.847Z,92.71
2019-02-01T01:04:11.853Z,92.90
2019-02-01T01:05:11.847Z,93.09
2019-02-01T01:06:11.854Z,92.99
2019-02-01T01:07:11.856Z,92.80
2019-02-01T01:08:11.856Z,92.90
2019-02-01T01:09:11.857Z,92.61
2019-02-01T01:10:11.863Z,92.71
2019-02-01T01:11:11.863Z,92.52
2019-02-01T01:12:11.865Z,93.09
2019-02-01T01:13:11.872Z,92.43
2019-02-01T01:14:11.873Z,92.52
2019-02-01T01:15:11.874Z,92.33
2019-02-01T01:16:11.882Z,92.61
2019-02-01T01:17:11.877Z,92.71
2019-02-01T01:18:23.273Z,92.05
2019-02-01T01:19:11.883Z,92.43
2019-02-01T01:20:11.894Z,92.52
2019-02-01T01:21:11.888Z,92.71
2019-02-01T01:22:11.891Z,92.33
2019-02-01T01:23:11.896Z,93.18
2019-02-01T01:24:11.896Z,92.99
2019-02-01T01:25:11.899Z,92.99
2019-02-01T01:26:11.902Z,92.43
2019-02-01T01:27:11.905Z,92.33
2019-02-01T01:28:11.908Z,92.33
2019-02-01T01:29:11.908Z,92.90
2019-02-01T01:30:11.912Z,92.43
2019-02-01T01:31:11.927Z,92.05
2019-02-01T01:32:11.916Z,91.58
2019-02-01T01:33:11.922Z,91.39
2019-02-01T01:34:11.924Z,90.45
2019-02-01T01:35:12.046Z,91.11
2019-02-01T01:36:11.932Z,91.02
2019-02-01T01:37:11.930Z,91.77
2019-02-01T01:38:11.933Z,91.86
2019-02-01T01:39:11.955Z,91.77
2019-02-01T01:40:11.938Z,91.96
2019-02-01T01:41:11.943Z,91.67
2019-02-01T01:42:11.944Z,92.14
2019-02-01T01:43:11.951Z,92.43
2019-02-01T01:44:11.948Z,91.77
2019-02-01T01:45:11.955Z,92.33
2019-02-01T01:46:11.954Z,91.77
2019-02-01T01:47:11.959Z,91.86
2019-02-01T01:48:11.960Z,91.96
2019-02-01T01:49:11.964Z,92.05
2019-02-01T01:50:11.968Z,91.96
2019-02-01T01:51:11.969Z,91.86
2019-02-01T01:52:11.972Z,92.33
2019-02-01T01:53:11.975Z,92.14
2019-02-01T01:54:11.977Z,92.52
2019-02-01T01:55:11.980Z,92.43
2019-02-01T01:56:11.990Z,92.52
2019-02-01T01:57:11.986Z,92.43
2019-02-01T01:58:11.991Z,92.43
2019-02-01T01:59:12.129Z,92.52
2019-02-01T02:00:11.993Z,92.33
2019-02-01T02:01:11.995Z,92.14
2019-02-01T02:02:12.002Z,92.43
2019-02-01T02:03:12.002Z,92.33
2019-02-01T02:04:12.008Z,93.09
2019-02-01T02:05:12.010Z,92.14
2019-02-01T02:06:12.014Z,92.43
2019-02-01T02:07:12.021Z,92.05
2019-02-01T02:08:12.134Z,93.09
2019-02-01T02:09:12.019Z,92.99
2019-02-01T02:10:12.021Z,92.80
2019-02-01T02:11:12.026Z,92.43
2019-02-01T02:12:12.028Z,92.33
2019-02-01T02:13:12.029Z,92.52
2019-02-01T02:14:12.032Z,92.14
2019-02-01T02:15:12.084Z,92.14
2019-02-01T02:16:12.040Z,92.43
2019-02-01T02:17:12.042Z,92.33
2019-02-01T02:18:12.043Z,92.14
2019-02-01T02:19:12.047Z,91.49
2019-02-01T02:20:12.049Z,92.05
2019-02-01T02:21:12.052Z,91.96
2019-02-01T02:22:12.055Z,92.24
2019-02-01T02:23:12.058Z,92.05
2019-02-01T02:24:12.060Z,92.24
2019-02-01T02:25:12.066Z,91.86
2019-02-01T02:26:12.066Z,91.67
2019-02-01T02:27:12.073Z,91.77
2019-02-01T02:28:12.072Z,92.05
2019-02-01T02:29:12.076Z,92.05
2019-02-01T02:30:12.079Z,92.43
2019-02-01T02:31:12.084Z,92.33
2019-02-01T02:32:12.084Z,92.14
2019-02-01T02:33:12.090Z,92.14
2019-02-01T02:34:12.090Z,91.86
2019-02-01T02:35:12.098Z,92.33
2019-02-01T02:36:12.096Z,92.05
2019-02-01T02:37:12.102Z,92.05
2019-02-01T02:38:12.104Z,92.14
2019-02-01T02:39:12.109Z,92.05
2019-02-01T02:40:12.110Z,92.52
2019-02-01T02:41:12.119Z,92.14
2019-02-01T02:42:12.119Z,91.96
2019-02-01T02:43:12.120Z,91.96
2019-02-01T02:44:12.121Z,92.52
2019-02-01T02:45:12.127Z,92.80
2019-02-01T02:46:12.130Z,93.56
2019-02-01T02:47:12.130Z,93.37
2019-02-01T02:48:12.131Z,93.47
2019-02-01T02:49:12.135Z,92.90
2019-02-01T02:50:12.140Z,92.90
2019-02-01T02:51:12.145Z,92.61
2019-02-01T02:52:12.145Z,91.91
2019-02-01T02:53:12.146Z,92.24
2019-02-01T02:54:12.223Z,92.33
2019-02-01T02:55:12.155Z,92.14
2019-02-01T02:56:12.158Z,92.99
2019-02-01T02:57:12.160Z,92.57
2019-02-01T02:58:12.169Z,93.04
2019-02-01T02:59:12.177Z,92.38
2019-02-01T03:00:12.171Z,91.82
2019-02-01T03:01:12.175Z,91.53
2019-02-01T03:02:12.202Z,91.20
2019-02-01T03:03:12.182Z,90.83
2019-02-01T03:04:12.179Z,91.35
2019-02-01T03:05:12.183Z,92.00
2019-02-01T03:06:12.188Z,92.38
2019-02-01T03:07:12.188Z,92.90
2019-02-01T03:08:12.194Z,92.85
2019-02-01T03:09:12.196Z,93.28
2019-02-01T03:10:12.197Z,93.23
2019-02-01T03:11:12.200Z,93.61
2019-02-01T03:12:12.206Z,94.08
2019-02-01T03:13:12.207Z,93.80
2019-02-01T03:14:12.212Z,94.27
2019-02-01T03:15:12.216Z,94.93
2019-02-01T03:16:12.220Z,94.08
2019-02-01T03:17:12.222Z,93.23
2019-02-01T03:18:12.225Z,93.13
2019-02-01T03:19:13.137Z,92.95
2019-02-01T03:20:12.233Z,92.47
2019-02-01T03:21:12.233Z,93.42
2019-02-01T03:22:12.235Z,93.04
2019-02-01T03:23:12.237Z,92.66
2019-02-01T03:24:12.242Z,92.85
2019-02-01T03:25:12.244Z,92.47
2019-02-01T03:26:12.246Z,92.66
2019-02-01T03:27:12.249Z,93.32
2019-02-01T03:28:12.256Z,93.51
2019-02-01T03:29:12.258Z,94.03
2019-02-01T03:30:12.269Z,94.60
2019-02-01T03:31:12.268Z,95.07
2019-02-01T03:32:12.266Z,94.41
2019-02-01T03:33:12.299Z,94.22
2019-02-01T03:34:12.274Z,94.32
2019-02-01T03:35:12.274Z,94.98
2019-02-01T03:36:12.276Z,94.41
2019-02-01T03:37:12.279Z,93.84
2019-02-01T03:38:12.289Z,93.94
2019-02-01T03:39:12.284Z,94.03
2019-02-01T03:40:12.290Z,93.94
2019-02-01T03:41:12.289Z,94.32
2019-02-01T03:42:12.295Z,93.75
2019-02-01T03:43:12.298Z,94.03
2019-02-01T03:44:12.297Z,93.84
2019-02-01T03:45:12.300Z,93.37
2019-02-01T03:46:12.303Z,93.47
2019-02-01T03:47:12.312Z,93.18
2019-02-01T03:48:12.309Z,93.47
2019-02-01T03:49:25.142Z,93.37
2019-02-01T03:50:12.317Z,93.37
2019-02-01T03:51:12.326Z,93.18
2019-02-01T03:52:12.322Z,93.61
2019-02-01T03:53:12.325Z,93.42
2019-02-01T03:54:12.326Z,93.42
2019-02-01T03:55:12.331Z,93.04
2019-02-01T03:56:12.336Z,92.57
2019-02-01T03:57:12.337Z,92.47
2019-02-01T03:58:12.346Z,93.13
2019-02-01T03:59:12.343Z,92.57
2019-02-01T04:00:12.403Z,92.85
2019-02-01T04:01:12.348Z,92.85
2019-02-01T04:02:12.351Z,92.29
2019-02-01T04:03:12.354Z,92.57
2019-02-01T04:04:12.357Z,92.38
2019-02-01T04:05:12.365Z,92.47
2019-02-01T04:06:12.362Z,92.95
2019-02-01T04:07:12.371Z,92.95
2019-02-01T04:08:12.370Z,93.04
2019-02-01T04:09:12.375Z,93.04
2019-02-01T04:10:12.378Z,92.95
2019-02-01T04:11:12.381Z,92.76
2019-02-01T04:12:12.380Z,92.66
2019-02-01T04:13:12.384Z,92.19
2019-02-01T04:14:12.391Z,92.47
2019-02-01T04:15:12.393Z,92.85
2019-02-01T04:16:12.393Z,92.95
2019-02-01T04:17:12.399Z,93.13
2019-02-01T04:18:12.406Z,92.57
2019-02-01T04:19:12.410Z,92.76
2019-02-01T04:20:12.406Z,92.95
2019-02-01T04:21:12.413Z,92.57
2019-02-01T04:22:12.414Z,92.95
2019-02-01T04:23:12.421Z,92.57
2019-02-01T04:24:12.420Z,92.85
2019-02-01T04:25:12.423Z,92.66
2019-02-01T04:26:12.426Z,92.47
2019-02-01T04:27:12.433Z,92.85
2019-02-01T04:28:12.432Z,92.47
2019-02-01T04:29:12.440Z,92.38
2019-02-01T04:30:12.441Z,92.19
2019-02-01T04:31:12.448Z,92.47
2019-02-01T04:32:12.446Z,92.85
2019-02-01T04:33:12.454Z,92.47
2019-02-01T04:34:12.455Z,91.82
2019-02-01T04:35:12.458Z,91.25
2019-02-01T04:36:12.459Z,90.87
2019-02-01T04:37:12.465Z,90.59
2019-02-01T04:38:12.467Z,90.87
2019-02-01T04:39:12.472Z,91.44
2019-02-01T04:40:12.478Z,90.78
2019-02-01T04:41:12.477Z,92.29
2019-02-01T04:42:12.482Z,92.66
2019-02-01T04:43:12.487Z,92.76
2019-02-01T04:44:12.491Z,92.95
2019-02-01T04:45:12.506Z,93.32
2019-02-01T04:46:15.375Z,93.42
2019-02-01T04:47:12.497Z,93.61
2019-02-01T04:48:12.503Z,93.70
2019-02-01T04:49:12.512Z,94.27
2019-02-01T04:50:12.510Z,94.18
2019-02-01T04:51:12.540Z,94.36
2019-02-01T04:52:15.102Z,94.18
2019-02-01T04:53:12.514Z,93.80
2019-02-01T04:54:12.520Z,93.99
2019-02-01T04:55:12.527Z,92.95
2019-02-01T04:56:12.524Z,92.76
2019-02-01T04:57:12.528Z,93.13
2019-02-01T04:58:12.531Z,93.13
2019-02-01T04:59:12.534Z,92.57
2019-02-01T05:00:12.538Z,93.23
2019-02-01T05:01:12.544Z,93.51
2019-02-01T05:02:12.547Z,94.08
2019-02-01T05:03:12.548Z,94.27
2019-02-01T05:04:12.549Z,94.93
2019-02-01T05:05:12.557Z,95.59
2019-02-01T05:06:12.562Z,95.21
2019-02-01T05:07:12.559Z,95.21
2019-02-01T05:08:12.562Z,94.84
2019-02-01T05:09:12.568Z,94.74
2019-02-01T05:10:12.685Z,94.08
2019-02-01T05:11:12.582Z,93.89
2019-02-01T05:12:12.577Z,93.42
2019-02-01T05:13:12.578Z,93.13
2019-02-01T05:14:12.581Z,93.23
2019-02-01T05:15:12.587Z,92.95
2019-02-01T05:16:12.714Z,93.23
2019-02-01T05:17:12.591Z,92.95
2019-02-01T05:18:12.605Z,93.04
2019-02-01T05:19:12.600Z,93.13
2019-02-01T05:20:19.660Z,93.04
2019-02-01T05:21:12.607Z,93.04
2019-02-01T05:22:12.610Z,93.61
2019-02-01T05:23:12.615Z,93.61
2019-02-01T05:24:12.617Z,93.80
2019-02-01T05:25:12.619Z,93.80
2019-02-01T05:26:12.622Z,94.08
2019-02-01T05:27:12.626Z,95.21
2019-02-01T05:28:12.632Z,95.03
2019-02-01T05:29:12.631Z,95.21
2019-02-01T05:30:12.635Z,94.93
2019-02-01T05:31:12.639Z,95.59
2019-02-01T05:32:12.641Z,95.03
2019-02-01T05:33:12.653Z,95.21
2019-02-01T05:34:12.653Z,95.40
2019-02-01T05:35:12.658Z,95.68
2019-02-01T05:36:12.655Z,95.50
2019-02-01T05:37:12.660Z,95.78
2019-02-01T05:38:12.662Z,95.68
2019-02-01T05:39:12.667Z,95.97
2019-02-01T05:40:12.670Z,96.15
2019-02-01T05:41:12.872Z,96.72
2019-02-01T05:42:12.677Z,96.63
2019-02-01T05:43:12.680Z,97.57
2019-02-01T05:44:12.686Z,97.48
2019-02-01T05:45:12.687Z,97.19
2019-02-01T05:46:12.691Z,97.19
2019-02-01T05:47:12.694Z,96.53
2019-02-01T05:48:15.827Z,95.87
2019-02-01T05:49:12.708Z,95.59
2019-02-01T05:50:12.705Z,95.68
2019-02-01T05:51:12.707Z,97.85
2019-02-01T05:52:12.711Z,97.95
2019-02-01T05:53:12.723Z,98.23
2019-02-01T05:54:12.725Z,97.95
2019-02-01T05:55:12.721Z,98.23
2019-02-01T05:56:12.725Z,97.76
2019-02-01T05:57:12.727Z,97.67
2019-02-01T05:58:12.733Z,97.67
2019-02-01T05:59:12.737Z,97.67
2019-02-01T06:00:12.740Z,97.29
2019-02-01T06:01:12.742Z,97.95
2019-02-01T06:02:12.746Z,97.76
2019-02-01T06:03:12.874Z,97.38
2019-02-01T06:04:12.773Z,97.67
2019-02-01T06:05:12.757Z,97.76
2019-02-01T06:06:12.761Z,98.14
2019-02-01T06:07:12.769Z,98.52
2019-02-01T06:08:12.774Z,98.80
2019-02-01T06:09:12.828Z,99.46
2019-02-01T06:10:12.776Z,99.27
2019-02-01T06:11:12.778Z,99.37
2019-02-01T06:12:12.782Z,99.37
2019-02-01T06:13:12.785Z,98.80
2019-02-01T06:14:12.790Z,98.80
2019-02-01T06:15:12.791Z,98.61
2019-02-01T06:16:12.794Z,98.71
2019-02-01T06:17:12.802Z,98.99
2019-02-01T06:18:12.802Z,98.71
2019-02-01T06:19:12.806Z,98.52
2019-02-01T06:20:12.810Z,99.55
2019-02-01T06:21:12.817Z,98.80
2019-02-01T06:22:12.816Z,99.37
2019-02-01T06:23:12.822Z,99.93
2019-02-01T06:24:12.823Z,99.55
2019-02-01T06:25:12.829Z,99.99
2019-02-01T06:26:12.833Z,99.99
2019-02-01T06:27:12.838Z,99.99
2019-02-01T06:28:12.839Z,99.99
2019-02-01T06:29:12.840Z,99.99
2019-02-01T06:30:12.846Z,99.99
2019-02-01T06:31:12.848Z,99.99
2019-02-01T06:32:12.852Z,99.99
2019-02-01T06:33:12.857Z,99.84
2019-02-01T06:34:12.863Z,99.99
2019-02-01T06:35:12.864Z,99.74
2019-02-01T06:36:12.864Z,99.99
2019-02-01T06:37:12.867Z,99.93
2019-02-01T06:38:12.872Z,99.99
2019-02-01T06:39:12.878Z,99.99
2019-02-01T06:40:12.882Z,99.99
2019-02-01T06:41:12.881Z,99.99
2019-02-01T06:42:12.903Z,99.99
2019-02-01T06:43:12.890Z,99.99
2019-02-01T06:44:12.892Z,99.99
2019-02-01T06:45:12.897Z,99.99
2019-02-01T06:46:12.900Z,99.99
2019-02-01T06:47:12.903Z,99.99
2019-02-01T06:48:12.908Z,99.99
2019-02-01T06:49:12.910Z,99.99
2019-02-01T06:50:12.916Z,99.99
2019-02-01T06:51:12.918Z,99.99
2019-02-01T06:52:12.925Z,99.99
2019-02-01T06:53:12.924Z,99.99
2019-02-01T06:54:12.929Z,99.99
2019-02-01T06:55:12.937Z,99.99
2019-02-01T06:56:12.932Z,99.99
2019-02-01T06:57:12.937Z,99.99
2019-02-01T06:58:12.940Z,99.99
2019-02-01T06:59:12.945Z,99.99
2019-02-01T07:00:12.955Z,99.99
2019-02-01T07:01:12.950Z,99.99
2019-02-01T07:02:12.958Z,99.99
2019-02-01T07:03:12.963Z,99.99
2019-02-01T07:04:12.960Z,99.99
2019-02-01T07:05:12.964Z,99.99
2019-02-01T07:06:12.968Z,99.99
2019-02-01T07:07:12.978Z,99.99
2019-02-01T07:08:12.974Z,99.99
2019-02-01T07:09:12.979Z,99.99
2019-02-01T07:10:12.987Z,99.99
2019-02-01T07:11:12.988Z,99.99
2019-02-01T07:12:12.988Z,99.99
2019-02-01T07:13:12.994Z,99.99
2019-02-01T07:14:12.995Z,99.99
2019-02-01T07:15:13.005Z,99.99
2019-02-01T07:16:13.001Z,99.99
2019-02-01T07:17:13.004Z,99.99
2019-02-01T07:18:13.009Z,99.99
2019-02-01T07:19:13.011Z,99.99
2019-02-01T07:20:13.015Z,99.99
2019-02-01T07:21:13.021Z,99.99
2019-02-01T07:22:13.029Z,99.99
2019-02-01T07:23:13.024Z,99.99
2019-02-01T07:24:13.030Z,99.99
2019-02-01T07:25:13.031Z,99.99
2019-02-01T07:26:13.034Z,99.99
2019-02-01T07:27:13.041Z,99.99
2019-02-01T07:28:13.040Z,99.99
2019-02-01T07:29:13.043Z,99.99
2019-02-01T07:30:13.047Z,99.99
2019-02-01T07:31:13.052Z,99.99
2019-02-01T07:32:13.052Z,99.99
2019-02-01T07:33:13.056Z,99.99
2019-02-01T07:34:15.032Z,99.99
2019-02-01T07:35:13.064Z,99.99
2019-02-01T07:36:13.065Z,99.99
2019-02-01T07:37:13.070Z,99.99
2019-02-01T07:38:13.073Z,99.99
2019-02-01T07:39:13.075Z,99.99
2019-02-01T07:40:13.081Z,99.99
2019-02-01T07:41:13.088Z,99.99
2019-02-01T07:42:13.087Z,99.99
2019-02-01T07:43:13.091Z,99.99
2019-02-01T07:44:13.092Z,99.99
2019-02-01T07:45:13.096Z,99.99
2019-02-01T07:46:13.100Z,99.99
2019-02-01T07:47:13.102Z,99.99
2019-02-01T07:48:13.104Z,99.99
2019-02-01T07:49:13.111Z,99.99
2019-02-01T07:50:23.545Z,99.99
2019-02-01T07:51:15.529Z,99.99
2019-02-01T07:52:13.122Z,99.99
2019-02-01T07:53:13.126Z,99.99
2019-02-01T07:54:13.125Z,99.99
2019-02-01T07:55:13.129Z,99.99
2019-02-01T07:56:13.132Z,99.99
2019-02-01T07:57:13.134Z,99.99
2019-02-01T07:58:13.141Z,99.99
2019-02-01T07:59:13.140Z,99.99
2019-02-01T08:00:13.149Z,99.99
2019-02-01T08:01:13.151Z,99.99
2019-02-01T08:02:13.151Z,99.99
2019-02-01T08:03:13.154Z,99.99
2019-02-01T08:04:13.156Z,99.99
2019-02-01T08:05:13.161Z,99.99
2019-02-01T08:06:13.165Z,99.99
2019-02-01T08:07:13.170Z,99.99
2019-02-01T08:08:13.169Z,99.99
2019-02-01T08:09:13.176Z,99.99
2019-02-01T08:10:13.178Z,99.99
2019-02-01T08:11:13.180Z,99.99
2019-02-01T08:12:13.182Z,99.99
2019-02-01T08:13:13.186Z,99.99
2019-02-01T08:14:13.188Z,99.99
2019-02-01T08:15:13.193Z,99.99
2019-02-01T08:16:13.195Z,99.99
2019-02-01T08:17:13.198Z,99.99
2019-02-01T08:18:13.203Z,99.99
2019-02-01T08:19:13.204Z,99.99
2019-02-01T08:20:13.266Z,99.99
2019-02-01T08:21:13.209Z,99.99
2019-02-01T08:22:13.213Z,99.99
2019-02-01T08:23:13.218Z,99.99
2019-02-01T08:24:13.219Z,99.99
2019-02-01T08:25:13.227Z,99.99
2019-02-01T08:26:13.225Z,99.99
2019-02-01T08:27:13.231Z,99.99
2019-02-01T08:28:13.343Z,99.99
2019-02-01T08:29:13.232Z,99.99
2019-02-01T08:30:13.237Z,99.99
2019-02-01T08:31:13.240Z,99.99
2019-02-01T08:32:13.242Z,99.99
2019-02-01T08:33:13.246Z,99.99
2019-02-01T08:34:13.249Z,99.99
2019-02-01T08:35:13.253Z,99.99
2019-02-01T08:36:13.255Z,99.99
2019-02-01T08:37:13.260Z,99.99
2019-02-01T08:38:13.263Z,99.99
2019-02-01T08:39:13.265Z,99.99
2019-02-01T08:40:13.270Z,99.99
2019-02-01T08:41:13.273Z,99.99
2019-02-01T08:42:13.275Z,99.99
2019-02-01T08:43:13.279Z,99.99
2019-02-01T08:44:14.646Z,99.99
2019-02-01T08:45:13.296Z,99.99
2019-02-01T08:46:13.307Z,99.99
2019-02-01T08:47:13.292Z,99.99
2019-02-01T08:48:13.293Z,99.99
2019-02-01T08:49:13.297Z,99.99
2019-02-01T08:50:13.301Z,99.99
2019-02-01T08:51:13.304Z,99.99
2019-02-01T08:52:13.306Z,99.99
2019-02-01T08:53:13.313Z,99.99
2019-02-01T08:54:13.318Z,99.99
2019-02-01T08:55:13.323Z,99.99
2019-02-01T08:56:13.321Z,99.99
2019-02-01T08:57:13.323Z,99.99
2019-02-01T08:58:13.331Z,99.99
2019-02-01T08:59:13.331Z,99.99
2019-02-01T09:00:13.338Z,99.99
2019-02-01T09:01:13.342Z,99.99
2019-02-01T09:02:13.342Z,99.99
2019-02-01T09:03:13.393Z,99.99
2019-02-01T09:04:13.352Z,99.99
2019-02-01T09:05:13.354Z,99.99
2019-02-01T09:06:13.354Z,99.99
2019-02-01T09:07:13.364Z,99.99
2019-02-01T09:08:13.367Z,99.99
2019-02-01T09:09:13.365Z,99.99
2019-02-01T09:10:13.372Z,99.99
2019-02-01T09:11:13.375Z,99.99
2019-02-01T09:12:13.378Z,99.99
2019-02-01T09:13:13.382Z,99.99
2019-02-01T09:14:13.388Z,99.99
2019-02-01T09:15:13.392Z,99.99
2019-02-01T09:16:13.390Z,99.99
2019-02-01T09:17:13.394Z,99.99
2019-02-01T09:18:13.399Z,99.99
2019-02-01T09:19:13.402Z,99.99
2019-02-01T09:20:13.405Z,99.99
2019-02-01T09:21:13.408Z,99.99
2019-02-01T09:22:13.412Z,99.99
2019-02-01T09:23:13.418Z,99.99
2019-02-01T09:24:13.419Z,99.99
2019-02-01T09:25:13.427Z,99.99
2019-02-01T09:26:13.427Z,99.99
2019-02-01T09:27:13.430Z,99.99
2019-02-01T09:28:13.433Z,99.99
2019-02-01T09:29:13.436Z,99.99
2019-02-01T09:30:13.442Z,99.99
2019-02-01T09:31:13.444Z,99.99
2019-02-01T09:32:13.447Z,99.99
2019-02-01T09:33:13.461Z,99.99
2019-02-01T09:34:13.455Z,99.99
2019-02-01T09:35:13.458Z,99.99
2019-02-01T09:36:13.460Z,99.99
2019-02-01T09:37:13.468Z,99.99
2019-02-01T09:38:13.470Z,99.99
2019-02-01T09:39:13.473Z,99.99
2019-02-01T09:40:13.477Z,99.99
2019-02-01T09:41:13.482Z,99.99
2019-02-01T09:42:13.482Z,99.99
2019-02-01T09:43:13.485Z,99.99
2019-02-01T09:44:13.490Z,99.99
2019-02-01T09:45:13.493Z,99.99
2019-02-01T09:46:13.503Z,99.99
2019-02-01T09:47:13.501Z,99.99
2019-02-01T09:48:13.504Z,99.99
2019-02-01T09:49:13.509Z,99.99
2019-02-01T09:50:13.637Z,99.99
2019-02-01T09:51:13.519Z,99.99
2019-02-01T09:52:13.523Z,99.99
2019-02-01T09:53:13.523Z,99.99
2019-02-01T09:54:13.529Z,99.99
2019-02-01T09:55:13.535Z,99.99
2019-02-01T09:56:13.535Z,99.99
2019-02-01T09:57:13.540Z,99.99
2019-02-01T09:58:13.546Z,99.99
2019-02-01T09:59:13.553Z,99.99
2019-02-01T10:00:13.553Z,99.99
2019-02-01T10:01:13.555Z,99.99
2019-02-01T10:02:13.558Z,99.99
2019-02-01T10:03:13.562Z,99.99
2019-02-01T10:04:13.567Z,99.99
2019-02-01T10:05:13.570Z,99.99
2019-02-01T10:06:13.576Z,99.99
2019-02-01T10:07:13.577Z,99.99
2019-02-01T10:08:13.584Z,99.99
2019-02-01T10:09:13.586Z,99.99
2019-02-01T10:10:13.593Z,99.99
2019-02-01T10:11:13.600Z,99.99
2019-02-01T10:12:13.601Z,99.99
2019-02-01T10:13:13.605Z,99.99
2019-02-01T10:14:13.607Z,99.99
2019-02-01T10:15:13.615Z,99.99
2019-02-01T10:16:13.614Z,99.99
2019-02-01T10:17:13.622Z,99.99
2019-02-01T10:18:13.625Z,99.99
2019-02-01T10:19:13.633Z,99.99
2019-02-01T10:20:13.640Z,99.99
2019-02-01T10:21:13.639Z,99.99
2019-02-01T10:22:14.015Z,99.88
2019-02-01T10:23:13.653Z,99.99
2019-02-01T10:24:13.651Z,99.99
2019-02-01T10:25:13.657Z,99.99
2019-02-01T10:26:13.662Z,99.99
2019-02-01T10:27:13.665Z,99.99
2019-02-01T10:28:13.667Z,99.99
2019-02-01T10:29:13.673Z,99.99
2019-02-01T10:30:13.679Z,99.99
2019-02-01T10:31:13.683Z,99.99
2019-02-01T10:32:13.688Z,99.99
2019-02-01T10:33:13.696Z,99.99
2019-02-01T10:34:13.702Z,99.99
2019-02-01T10:35:13.700Z,99.99
2019-02-01T10:36:13.704Z,99.99
2019-02-01T10:37:13.708Z,99.99
2019-02-01T10:38:13.712Z,99.99
2019-02-01T10:39:13.724Z,99.99
2019-02-01T10:40:13.723Z,99.99
2019-02-01T10:41:13.730Z,99.99
2019-02-01T10:42:13.734Z,99.99
2019-02-01T10:43:13.735Z,99.27
2019-02-01T10:44:13.738Z,98.43
2019-02-01T10:45:13.747Z,98.80
2019-02-01T10:46:13.749Z,97.67
2019-02-01T10:47:13.757Z,97.10
2019-02-01T10:48:13.764Z,96.54
2019-02-01T10:49:13.769Z,96.91
2019-02-01T10:50:13.769Z,97.29
2019-02-01T10:51:13.775Z,97.48
2019-02-01T10:52:24.179Z,97.01
2019-02-01T10:53:13.783Z,95.92
2019-02-01T10:54:13.790Z,94.32
2019-02-01T10:55:13.795Z,93.94
2019-02-01T10:56:13.799Z,94.41
2019-02-01T10:57:13.802Z,94.22
2019-02-01T10:58:13.811Z,96.25
2019-02-01T10:59:13.813Z,96.82
2019-02-01T11:00:13.819Z,98.61
2019-02-01T11:01:13.825Z,99.94
2019-02-01T11:02:13.829Z,99.84
2019-02-01T11:03:13.839Z,99.99
2019-02-01T11:04:13.840Z,99.42
2019-02-01T11:05:13.846Z,97.91
2019-02-01T11:06:13.851Z,96.78
2019-02-01T11:07:13.857Z,95.07
2019-02-01T11:08:13.863Z,93.75
2019-02-01T11:09:13.870Z,93.09
2019-02-01T11:10:13.872Z,92.33
2019-02-01T11:11:13.881Z,94.60
2019-02-01T11:12:14.724Z,97.15
2019-02-01T11:13:13.892Z,97.34
2019-02-01T11:14:13.895Z,98.80
2019-02-01T11:15:13.902Z,99.99
2019-02-01T11:16:13.907Z,99.99
2019-02-01T11:17:13.914Z,99.99
2019-02-01T11:18:13.920Z,99.99
2019-02-01T11:19:13.925Z,99.99
2019-02-01T11:20:13.932Z,99.99
2019-02-01T11:21:13.936Z,99.99
2019-02-01T11:22:13.942Z,99.99
2019-02-01T11:23:13.949Z,99.99
2019-02-01T11:24:16.039Z,99.99
2019-02-01T11:25:13.960Z,99.99
2019-02-01T11:26:13.965Z,99.99
2019-02-01T11:27:13.974Z,99.99
2019-02-01T11:28:13.976Z,99.99
2019-02-01T11:29:13.984Z,99.99
2019-02-01T11:30:13.988Z,99.99
2019-02-01T11:31:14.000Z,99.99
2019-02-01T11:32:14.001Z,99.99
2019-02-01T11:33:14.008Z,99.99
2019-02-01T11:34:14.019Z,99.99
2019-02-01T11:35:14.020Z,99.99
2019-02-01T11:36:14.029Z,99.99
2019-02-01T11:37:14.031Z,99.99
2019-02-01T11:38:14.034Z,99.99
2019-02-01T11:39:14.041Z,99.99
2019-02-01T11:40:14.047Z,99.99
2019-02-01T11:41:14.050Z,99.99
2019-02-01T11:42:14.058Z,99.46
2019-02-01T11:43:14.063Z,99.99
2019-02-01T11:44:14.069Z,99.99
2019-02-01T11:45:14.074Z,99.99
2019-02-01T11:46:14.080Z,99.99
2019-02-01T11:47:14.088Z,99.99
2019-02-01T11:48:14.089Z,99.99
2019-02-01T11:49:14.099Z,99.99
2019-02-01T11:50:14.104Z,99.99
2019-02-01T11:51:14.110Z,99.99
2019-02-01T11:52:14.115Z,99.99
2019-02-01T11:53:14.119Z,99.99
2019-02-01T11:54:14.126Z,99.99
2019-02-01T11:55:14.129Z,99.99
2019-02-01T11:56:14.138Z,99.33
2019-02-01T11:57:14.144Z,97.81
2019-02-01T11:58:14.149Z,99.08
2019-02-01T11:59:14.153Z,98.71
2019-02-01T12:00:14.159Z,97.48
2019-02-01T12:01:14.164Z,97.48
2019-02-01T12:02:14.178Z,95.97
2019-02-01T12:03:14.175Z,95.78
2019-02-01T12:04:14.185Z,96.06
2019-02-01T12:05:14.188Z,95.50
2019-02-01T12:06:14.191Z,94.18
2019-02-01T12:07:14.199Z,93.18
2019-02-01T12:08:14.201Z,93.28
2019-02-01T12:09:14.210Z,93.18
2019-02-01T12:10:14.220Z,93.18
2019-02-01T12:11:14.219Z,92.14
2019-02-01T12:12:14.226Z,90.73
2019-02-01T12:13:14.234Z,90.73
2019-02-01T12:14:14.240Z,89.87
2019-02-01T12:15:14.251Z,89.97
2019-02-01T12:16:14.253Z,89.31
2019-02-01T12:17:14.254Z,91.01
2019-02-01T12:18:14.261Z,93.56
2019-02-01T12:19:14.273Z,95.07
2019-02-01T12:20:14.282Z,94.03
2019-02-01T12:21:14.280Z,92.99
2019-02-01T12:22:14.284Z,93.37
2019-02-01T12:23:14.294Z,97.01
2019-02-01T12:24:14.300Z,98.47
2019-02-01T12:25:14.306Z,98.00
2019-02-01T12:26:14.312Z,96.02
2019-02-01T12:27:14.315Z,93.56
2019-02-01T12:28:14.322Z,92.80
2019-02-01T12:29:14.388Z,90.73
2019-02-01T12:30:14.333Z,90.35
2019-02-01T12:31:19.651Z,89.31
2019-02-01T12:32:14.344Z,89.50
2019-02-01T12:33:14.352Z,89.50
2019-02-01T12:34:14.355Z,91.15
2019-02-01T12:35:14.362Z,92.85
2019-02-01T12:36:14.367Z,93.28
2019-02-01T12:37:14.374Z,92.90
2019-02-01T12:38:14.381Z,92.52
2019-02-01T12:39:14.388Z,92.52
2019-02-01T12:40:14.393Z,92.33
2019-02-01T12:41:14.422Z,91.67
2019-02-01T12:42:14.403Z,90.44
2019-02-01T12:43:14.414Z,89.69
2019-02-01T12:44:14.432Z,89.78
2019-02-01T12:45:14.436Z,89.22
2019-02-01T12:46:14.428Z,88.55
2019-02-01T12:47:14.433Z,88.36
2019-02-01T12:48:14.447Z,88.65
2019-02-01T12:49:14.448Z,88.27
2019-02-01T12:50:14.454Z,87.79
2019-02-01T12:51:14.458Z,87.89
2019-02-01T12:52:14.466Z,88.65